Winchester, ID

11:35 AM PDT on October 20, 2014 (GMT -0700)
RAWS MISSION CREEK ID US | Change Station
CLOSE
Current Station
Personal Weather Station
Location: Winchester, ID
Elevation: 3411 ft
Nearby Weather Stations

Elev 3411 ft 46.29 °N, 116.69 °W | Updated 32 minutes ago

Clear
Clear
68 °F
Feels Like 68 °F
N
4
Wind Variable Wind from NW
Gusts 9.0 mph

Today
High -- | Low -- °F
--% Chance of Precip.
Yesterday
High -- | Low -- °F
Precip. -- in
7:10 AM 5:51 PM
Waning Crescent, 9% visible
Pressure 29.84 in
Visibility 4.0 miles
Clouds Clear
Dew Point 32 °F
Humidity 26%
Rainfall 0.00 in
Snow Depth Not available.
UV 3 out of 12
Pollen 3.10 out of 12
PM2.5 Moderate
Flu Activity Sporadic
METAR KGIC 201815Z AUTO 07004KT 4SM CLR 20/01 A2984 RMK AO1 T02040006

More Conditions Fewer Conditions

Pressure 29.84 in
Visibility 4.0 miles
Clouds Clear
Dew Point 32 °F
Humidity 26%
Rainfall 0.00 in
Snow Depth Not available.
UV 3 out of 12
Pollen 3.10 out of 12
PM2.5 Moderate
Flu Activity Sporadic
METAR KGIC 201815Z AUTO 07004KT 4SM CLR 20/01 A2984 RMK AO1 T02040006

More Conditions Fewer Conditions

10-Day Weather Forecast

Almanac

Astronomy

Oct. 20, 2014 Rise Set
Actual Time 7:10 AM PDT 5:51 PM PDT
Civil Twilight 6:40 AM PDT 6:21 PM PDT
Nautical Twilight 6:05 AM PDT 6:56 PM PDT
Astronomical Twilight 5:30 AM PDT 7:31 PM PDT
Moon 3:52 AM PDT 4:24 PM PDT
Length of Visible Light 11h 41m
Length of Day
10h 40m
Waning Crescent, 9% of the Moon is Illuminated
Today
Waning Crescent
Oct 23
New
Oct 30
First Quarter
Nov 6
Full
Nov 14
Last Quarter

Today's Extremes

State Highs State Lows

Community

WunderPhotos

Upload Photos

1,763,460 photos uploaded!

Nearby

Air Quality

  Air Quality AQ Index Pollutant
Yesterday Good
PM2.5
Current Moderate
PM2.5
Monday Good
PM2.5
Tuesday Good
PM2.5
Wednesday Good
PM2.5

Snow Depth

Station Depth Elevation
Moscow Mountain 0 in 4700 ft
Elk Butte 0 in 5690 ft
Hemlock Butte 0 in 5810 ft
Sherwin 1 in 3200 ft
Mica Creek 1 in 4750 ft

Earthquake Activity

City Distance Mag. Time & Date
No recent earthquake activity has been reported nearby.
Minimum magnitude displayed is 2.5.

Coastal Water Temperatures

Place Temperature
No Stations Reporting

Nearby Weather Stations